sensor_id;sensor_type;location;lat;lon;timestamp;P1;durP1;ratioP1;P2;durP2;ratioP2
42770;SDS011;28426;42.872;25.314;2023-02-22T00:00:25;9.75;;;3.72;;
42770;SDS011;28426;42.872;25.314;2023-02-22T00:03:10;6.82;;;3.42;;
42770;SDS011;28426;42.872;25.314;2023-02-22T00:05:42;7.65;;;3.22;;
42770;SDS011;28426;42.872;25.314;2023-02-22T00:08:14;7.75;;;3.08;;
42770;SDS011;28426;42.872;25.314;2023-02-22T00:10:46;9.23;;;3.60;;
42770;SDS011;28426;42.872;25.314;2023-02-22T00:13:18;7.57;;;3.30;;
42770;SDS011;28426;42.872;25.314;2023-02-22T00:15:52;6.38;;;3.45;;
42770;SDS011;28426;42.872;25.314;2023-02-22T00:18:23;7.15;;;3.75;;
42770;SDS011;28426;42.872;25.314;2023-02-22T00:20:54;7.38;;;3.40;;
42770;SDS011;28426;42.872;25.314;2023-02-22T00:23:27;9.48;;;4.55;;
42770;SDS011;28426;42.872;25.314;2023-02-22T00:26:01;10.00;;;4.35;;
42770;SDS011;28426;42.872;25.314;2023-02-22T00:28:31;7.15;;;3.63;;
42770;SDS011;28426;42.872;25.314;2023-02-22T00:31:06;8.18;;;3.50;;
42770;SDS011;28426;42.872;25.314;2023-02-22T00:33:37;9.32;;;3.45;;
42770;SDS011;28426;42.872;25.314;2023-02-22T00:36:09;7.97;;;3.25;;
42770;SDS011;28426;42.872;25.314;2023-02-22T00:38:40;7.82;;;3.30;;
42770;SDS011;28426;42.872;25.314;2023-02-22T00:41:13;6.60;;;3.10;;
42770;SDS011;28426;42.872;25.314;2023-02-22T00:43:44;8.23;;;3.33;;
42770;SDS011;28426;42.872;25.314;2023-02-22T00:46:18;9.00;;;2.80;;
42770;SDS011;28426;42.872;25.314;2023-02-22T00:48:48;7.35;;;3.22;;
42770;SDS011;28426;42.872;25.314;2023-02-22T00:51:19;7.13;;;3.50;;
42770;SDS011;28426;42.872;25.314;2023-02-22T00:53:49;9.27;;;3.05;;
42770;SDS011;28426;42.872;25.314;2023-02-22T00:56:22;9.85;;;2.78;;
42770;SDS011;28426;42.872;25.314;2023-02-22T00:58:52;9.13;;;2.50;;
42770;SDS011;28426;42.872;25.314;2023-02-22T01:01:26;9.27;;;3.30;;
42770;SDS011;28426;42.872;25.314;2023-02-22T01:03:57;10.00;;;4.45;;
42770;SDS011;28426;42.872;25.314;2023-02-22T01:06:28;9.27;;;3.88;;
42770;SDS011;28426;42.872;25.314;2023-02-22T01:08:58;13.02;;;4.70;;
42770;SDS011;28426;42.872;25.314;2023-02-22T01:11:29;6.38;;;3.38;;
42770;SDS011;28426;42.872;25.314;2023-02-22T01:14:00;11.07;;;3.88;;
42770;SDS011;28426;42.872;25.314;2023-02-22T01:16:33;8.43;;;3.05;;
42770;SDS011;28426;42.872;25.314;2023-02-22T01:19:05;8.60;;;3.47;;
42770;SDS011;28426;42.872;25.314;2023-02-22T01:21:35;6.55;;;3.72;;
42770;SDS011;28426;42.872;25.314;2023-02-22T01:24:06;6.97;;;3.92;;
42770;SDS011;28426;42.872;25.314;2023-02-22T01:26:40;9.52;;;5.22;;
42770;SDS011;28426;42.872;25.314;2023-02-22T01:29:12;7.80;;;4.35;;
42770;SDS011;28426;42.872;25.314;2023-02-22T01:31:52;9.70;;;4.43;;
42770;SDS011;28426;42.872;25.314;2023-02-22T01:34:23;5.90;;;3.20;;
42770;SDS011;28426;42.872;25.314;2023-02-22T01:36:56;9.43;;;4.55;;
42770;SDS011;28426;42.872;25.314;2023-02-22T01:39:27;7.32;;;4.07;;
42770;SDS011;28426;42.872;25.314;2023-02-22T01:41:58;7.20;;;3.55;;
42770;SDS011;28426;42.872;25.314;2023-02-22T01:44:29;9.27;;;4.50;;
42770;SDS011;28426;42.872;25.314;2023-02-22T01:47:06;8.05;;;3.97;;
42770;SDS011;28426;42.872;25.314;2023-02-22T01:49:38;9.52;;;3.92;;
42770;SDS011;28426;42.872;25.314;2023-02-22T01:52:14;12.15;;;3.53;;
42770;SDS011;28426;42.872;25.314;2023-02-22T01:54:49;7.68;;;3.80;;
42770;SDS011;28426;42.872;25.314;2023-02-22T01:57:24;8.93;;;4.30;;
42770;SDS011;28426;42.872;25.314;2023-02-22T01:59:59;6.93;;;3.70;;
42770;SDS011;28426;42.872;25.314;2023-02-22T02:02:45;9.75;;;4.80;;
42770;SDS011;28426;42.872;25.314;2023-02-22T02:05:21;9.95;;;5.15;;
42770;SDS011;28426;42.872;25.314;2023-02-22T02:07:52;12.35;;;4.68;;
42770;SDS011;28426;42.872;25.314;2023-02-22T02:10:23;11.10;;;4.45;;
42770;SDS011;28426;42.872;25.314;2023-02-22T02:12:54;9.48;;;4.78;;
42770;SDS011;28426;42.872;25.314;2023-02-22T02:15:30;9.25;;;4.20;;
42770;SDS011;28426;42.872;25.314;2023-02-22T02:18:06;7.55;;;3.67;;
42770;SDS011;28426;42.872;25.314;2023-02-22T02:20:42;11.73;;;4.00;;
42770;SDS011;28426;42.872;25.314;2023-02-22T02:23:35;11.38;;;4.85;;
42770;SDS011;28426;42.872;25.314;2023-02-22T02:29:36;10.98;;;5.53;;
42770;SDS011;28426;42.872;25.314;2023-02-22T02:32:29;12.35;;;5.18;;
42770;SDS011;28426;42.872;25.314;2023-02-22T02:35:06;11.73;;;5.30;;
42770;SDS011;28426;42.872;25.314;2023-02-22T02:37:47;10.98;;;5.28;;
42770;SDS011;28426;42.872;25.314;2023-02-22T02:40:29;14.43;;;5.40;;
42770;SDS011;28426;42.872;25.314;2023-02-22T02:43:07;8.57;;;4.18;;
42770;SDS011;28426;42.872;25.314;2023-02-22T02:45:44;14.63;;;5.30;;
42770;SDS011;28426;42.872;25.314;2023-02-22T02:48:22;10.13;;;4.32;;
42770;SDS011;28426;42.872;25.314;2023-02-22T02:50:57;8.45;;;3.90;;
42770;SDS011;28426;42.872;25.314;2023-02-22T02:53:30;8.98;;;4.10;;
42770;SDS011;28426;42.872;25.314;2023-02-22T02:56:04;8.57;;;4.30;;
42770;SDS011;28426;42.872;25.314;2023-02-22T02:58:41;10.50;;;4.47;;
42770;SDS011;28426;42.872;25.314;2023-02-22T03:01:27;14.50;;;5.25;;
42770;SDS011;28426;42.872;25.314;2023-02-22T03:04:29;10.55;;;4.50;;
42770;SDS011;28426;42.872;25.314;2023-02-22T03:07:10;10.02;;;4.32;;
42770;SDS011;28426;42.872;25.314;2023-02-22T03:09:54;15.50;;;5.20;;
42770;SDS011;28426;42.872;25.314;2023-02-22T03:12:42;12.70;;;4.90;;
42770;SDS011;28426;42.872;25.314;2023-02-22T03:15:18;10.65;;;4.95;;
42770;SDS011;28426;42.872;25.314;2023-02-22T03:18:01;12.98;;;4.47;;
42770;SDS011;28426;42.872;25.314;2023-02-22T03:20:41;10.07;;;4.78;;
42770;SDS011;28426;42.872;25.314;2023-02-22T03:23:19;10.75;;;4.25;;
42770;SDS011;28426;42.872;25.314;2023-02-22T03:25:56;8.75;;;4.35;;
42770;SDS011;28426;42.872;25.314;2023-02-22T03:28:34;7.93;;;4.20;;
42770;SDS011;28426;42.872;25.314;2023-02-22T03:31:11;9.00;;;4.90;;
42770;SDS011;28426;42.872;25.314;2023-02-22T03:33:46;9.02;;;4.63;;
42770;SDS011;28426;42.872;25.314;2023-02-22T03:36:24;8.68;;;4.20;;
42770;SDS011;28426;42.872;25.314;2023-02-22T03:38:59;9.15;;;4.18;;
42770;SDS011;28426;42.872;25.314;2023-02-22T03:41:31;11.77;;;4.40;;
42770;SDS011;28426;42.872;25.314;2023-02-22T03:44:07;9.07;;;4.43;;
42770;SDS011;28426;42.872;25.314;2023-02-22T03:46:41;8.37;;;4.30;;
42770;SDS011;28426;42.872;25.314;2023-02-22T03:49:16;10.35;;;4.47;;
42770;SDS011;28426;42.872;25.314;2023-02-22T03:51:55;10.35;;;4.30;;
42770;SDS011;28426;42.872;25.314;2023-02-22T03:54:28;9.35;;;4.43;;
42770;SDS011;28426;42.872;25.314;2023-02-22T03:57:03;10.50;;;4.60;;
42770;SDS011;28426;42.872;25.314;2023-02-22T03:59:41;9.85;;;4.38;;
42770;SDS011;28426;42.872;25.314;2023-02-22T04:02:12;9.07;;;4.38;;
42770;SDS011;28426;42.872;25.314;2023-02-22T04:04:45;9.23;;;4.28;;
42770;SDS011;28426;42.872;25.314;2023-02-22T04:07:20;8.23;;;4.03;;
42770;SDS011;28426;42.872;25.314;2023-02-22T04:09:51;8.75;;;4.18;;
42770;SDS011;28426;42.872;25.314;2023-02-22T04:12:22;10.63;;;4.38;;
42770;SDS011;28426;42.872;25.314;2023-02-22T04:17:28;10.93;;;4.35;;
42770;SDS011;28426;42.872;25.314;2023-02-22T04:20:00;12.90;;;4.60;;
42770;SDS011;28426;42.872;25.314;2023-02-22T04:22:50;12.60;;;5.30;;
42770;SDS011;28426;42.872;25.314;2023-02-22T04:25:21;9.48;;;4.13;;
42770;SDS011;28426;42.872;25.314;2023-02-22T04:27:52;8.43;;;4.57;;
42770;SDS011;28426;42.872;25.314;2023-02-22T04:30:34;11.38;;;4.25;;
42770;SDS011;28426;42.872;25.314;2023-02-22T04:33:08;11.20;;;4.93;;
42770;SDS011;28426;42.872;25.314;2023-02-22T04:35:39;12.98;;;5.18;;
42770;SDS011;28426;42.872;25.314;2023-02-22T04:38:13;9.07;;;4.60;;
42770;SDS011;28426;42.872;25.314;2023-02-22T04:40:43;10.77;;;4.47;;
42770;SDS011;28426;42.872;25.314;2023-02-22T04:43:14;9.02;;;4.25;;
42770;SDS011;28426;42.872;25.314;2023-02-22T04:45:46;8.45;;;4.13;;
42770;SDS011;28426;42.872;25.314;2023-02-22T04:48:17;9.02;;;3.63;;
42770;SDS011;28426;42.872;25.314;2023-02-22T04:50:48;10.65;;;3.67;;
42770;SDS011;28426;42.872;25.314;2023-02-22T04:53:21;7.95;;;4.53;;
42770;SDS011;28426;42.872;25.314;2023-02-22T04:55:52;10.70;;;5.50;;
42770;SDS011;28426;42.872;25.314;2023-02-22T04:58:23;12.45;;;6.40;;
42770;SDS011;28426;42.872;25.314;2023-02-22T05:00:54;13.32;;;5.97;;
42770;SDS011;28426;42.872;25.314;2023-02-22T05:03:25;9.63;;;5.53;;
42770;SDS011;28426;42.872;25.314;2023-02-22T05:05:56;10.13;;;5.50;;
42770;SDS011;28426;42.872;25.314;2023-02-22T05:08:32;15.65;;;6.07;;
42770;SDS011;28426;42.872;25.314;2023-02-22T05:11:03;12.57;;;5.93;;
42770;SDS011;28426;42.872;25.314;2023-02-22T05:13:34;12.57;;;5.38;;
42770;SDS011;28426;42.872;25.314;2023-02-22T05:16:05;13.48;;;5.00;;
42770;SDS011;28426;42.872;25.314;2023-02-22T05:18:36;16.13;;;5.35;;
42770;SDS011;28426;42.872;25.314;2023-02-22T05:21:07;11.70;;;5.13;;
42770;SDS011;28426;42.872;25.314;2023-02-22T05:23:42;11.82;;;5.70;;
42770;SDS011;28426;42.872;25.314;2023-02-22T05:26:13;10.23;;;5.13;;
42770;SDS011;28426;42.872;25.314;2023-02-22T05:28:43;11.55;;;5.80;;
42770;SDS011;28426;42.872;25.314;2023-02-22T05:31:14;11.52;;;5.82;;
42770;SDS011;28426;42.872;25.314;2023-02-22T05:33:45;12.98;;;5.82;;
42770;SDS011;28426;42.872;25.314;2023-02-22T05:36:16;13.00;;;5.63;;
42770;SDS011;28426;42.872;25.314;2023-02-22T05:38:49;13.52;;;5.53;;
42770;SDS011;28426;42.872;25.314;2023-02-22T05:41:20;16.25;;;6.10;;
42770;SDS011;28426;42.872;25.314;2023-02-22T05:43:50;15.55;;;7.13;;
42770;SDS011;28426;42.872;25.314;2023-02-22T05:46:21;16.02;;;7.07;;
42770;SDS011;28426;42.872;25.314;2023-02-22T05:48:51;18.13;;;7.55;;
42770;SDS011;28426;42.872;25.314;2023-02-22T05:51:22;15.20;;;7.35;;
42770;SDS011;28426;42.872;25.314;2023-02-22T05:53:55;17.85;;;7.85;;
42770;SDS011;28426;42.872;25.314;2023-02-22T05:56:26;21.70;;;8.25;;
42770;SDS011;28426;42.872;25.314;2023-02-22T05:58:57;21.60;;;9.15;;
42770;SDS011;28426;42.872;25.314;2023-02-22T06:01:28;15.70;;;8.25;;
42770;SDS011;28426;42.872;25.314;2023-02-22T06:03:59;20.25;;;8.00;;
42770;SDS011;28426;42.872;25.314;2023-02-22T06:06:29;19.90;;;9.52;;
42770;SDS011;28426;42.872;25.314;2023-02-22T06:09:02;21.88;;;9.98;;
42770;SDS011;28426;42.872;25.314;2023-02-22T06:11:33;19.65;;;10.68;;
42770;SDS011;28426;42.872;25.314;2023-02-22T06:14:03;29.17;;;11.63;;
42770;SDS011;28426;42.872;25.314;2023-02-22T06:16:35;22.27;;;11.07;;
42770;SDS011;28426;42.872;25.314;2023-02-22T06:19:05;41.60;;;12.45;;
42770;SDS011;28426;42.872;25.314;2023-02-22T06:21:36;26.63;;;9.05;;
42770;SDS011;28426;42.872;25.314;2023-02-22T06:24:10;33.42;;;11.15;;
42770;SDS011;28426;42.872;25.314;2023-02-22T06:26:41;30.40;;;10.80;;
42770;SDS011;28426;42.872;25.314;2023-02-22T06:29:11;25.20;;;10.65;;
42770;SDS011;28426;42.872;25.314;2023-02-22T06:31:42;28.85;;;11.15;;
42770;SDS011;28426;42.872;25.314;2023-02-22T06:34:13;28.42;;;11.10;;
42770;SDS011;28426;42.872;25.314;2023-02-22T06:36:43;29.65;;;13.00;;
42770;SDS011;28426;42.872;25.314;2023-02-22T06:39:17;29.77;;;13.35;;
42770;SDS011;28426;42.872;25.314;2023-02-22T06:41:47;27.42;;;13.98;;
42770;SDS011;28426;42.872;25.314;2023-02-22T06:44:18;37.95;;;13.85;;
42770;SDS011;28426;42.872;25.314;2023-02-22T06:46:49;55.55;;;14.75;;
42770;SDS011;28426;42.872;25.314;2023-02-22T06:49:20;32.00;;;13.95;;
42770;SDS011;28426;42.872;25.314;2023-02-22T06:51:50;45.30;;;15.40;;
42770;SDS011;28426;42.872;25.314;2023-02-22T06:54:24;85.20;;;20.08;;
42770;SDS011;28426;42.872;25.314;2023-02-22T06:56:54;36.53;;;14.48;;
42770;SDS011;28426;42.872;25.314;2023-02-22T06:59:25;56.08;;;16.60;;
42770;SDS011;28426;42.872;25.314;2023-02-22T07:01:56;52.28;;;15.65;;
42770;SDS011;28426;42.872;25.314;2023-02-22T07:04:27;24.60;;;9.15;;
42770;SDS011;28426;42.872;25.314;2023-02-22T07:06:58;14.85;;;5.55;;
42770;SDS011;28426;42.872;25.314;2023-02-22T07:09:31;49.22;;;8.73;;
42770;SDS011;28426;42.872;25.314;2023-02-22T07:12:02;14.65;;;4.05;;
42770;SDS011;28426;42.872;25.314;2023-02-22T07:14:33;12.45;;;2.97;;
42770;SDS011;28426;42.872;25.314;2023-02-22T07:17:04;14.88;;;3.53;;
42770;SDS011;28426;42.872;25.314;2023-02-22T07:19:35;9.07;;;3.42;;
42770;SDS011;28426;42.872;25.314;2023-02-22T07:22:05;24.70;;;3.63;;
42770;SDS011;28426;42.872;25.314;2023-02-22T07:24:38;13.95;;;2.25;;
42770;SDS011;28426;42.872;25.314;2023-02-22T07:27:09;7.47;;;2.08;;
42770;SDS011;28426;42.872;25.314;2023-02-22T07:29:41;27.90;;;3.70;;
42770;SDS011;28426;42.872;25.314;2023-02-22T07:32:12;6.55;;;2.08;;
42770;SDS011;28426;42.872;25.314;2023-02-22T07:34:43;12.38;;;2.75;;
42770;SDS011;28426;42.872;25.314;2023-02-22T07:37:14;41.20;;;7.15;;
42770;SDS011;28426;42.872;25.314;2023-02-22T07:39:47;9.70;;;2.95;;
42770;SDS011;28426;42.872;25.314;2023-02-22T07:42:17;5.38;;;2.10;;
42770;SDS011;28426;42.872;25.314;2023-02-22T07:44:49;16.95;;;3.45;;
42770;SDS011;28426;42.872;25.314;2023-02-22T07:47:19;9.90;;;3.45;;
42770;SDS011;28426;42.872;25.314;2023-02-22T07:49:50;12.80;;;3.10;;
42770;SDS011;28426;42.872;25.314;2023-02-22T07:52:20;10.18;;;2.70;;
42770;SDS011;28426;42.872;25.314;2023-02-22T07:54:54;13.45;;;3.00;;
42770;SDS011;28426;42.872;25.314;2023-02-22T07:57:24;11.07;;;2.53;;
42770;SDS011;28426;42.872;25.314;2023-02-22T07:59:55;8.73;;;2.88;;
42770;SDS011;28426;42.872;25.314;2023-02-22T08:02:26;10.02;;;3.85;;
42770;SDS011;28426;42.872;25.314;2023-02-22T08:04:56;9.60;;;2.53;;
42770;SDS011;28426;42.872;25.314;2023-02-22T08:07:29;11.55;;;3.33;;
42770;SDS011;28426;42.872;25.314;2023-02-22T08:10:02;12.20;;;3.13;;
42770;SDS011;28426;42.872;25.314;2023-02-22T08:12:34;6.70;;;2.60;;
42770;SDS011;28426;42.872;25.314;2023-02-22T08:15:06;11.25;;;3.42;;
42770;SDS011;28426;42.872;25.314;2023-02-22T08:17:39;8.50;;;3.55;;
42770;SDS011;28426;42.872;25.314;2023-02-22T08:20:10;20.25;;;3.50;;
42770;SDS011;28426;42.872;25.314;2023-02-22T08:22:41;8.95;;;2.50;;
42770;SDS011;28426;42.872;25.314;2023-02-22T08:25:16;7.15;;;2.33;;
42770;SDS011;28426;42.872;25.314;2023-02-22T08:27:48;7.22;;;2.10;;
42770;SDS011;28426;42.872;25.314;2023-02-22T08:30:24;7.85;;;2.30;;
42770;SDS011;28426;42.872;25.314;2023-02-22T08:32:55;6.53;;;2.20;;
42770;SDS011;28426;42.872;25.314;2023-02-22T08:35:26;7.68;;;2.50;;
42770;SDS011;28426;42.872;25.314;2023-02-22T08:37:58;10.93;;;3.15;;
42770;SDS011;28426;42.872;25.314;2023-02-22T08:40:33;7.50;;;2.42;;
42770;SDS011;28426;42.872;25.314;2023-02-22T08:43:05;8.85;;;2.50;;
42770;SDS011;28426;42.872;25.314;2023-02-22T08:45:36;8.68;;;2.60;;
42770;SDS011;28426;42.872;25.314;2023-02-22T08:48:07;14.48;;;3.53;;
42770;SDS011;28426;42.872;25.314;2023-02-22T08:50:37;12.00;;;2.83;;
42770;SDS011;28426;42.872;25.314;2023-02-22T08:53:08;8.55;;;2.33;;
42770;SDS011;28426;42.872;25.314;2023-02-22T08:55:43;12.57;;;2.60;;
42770;SDS011;28426;42.872;25.314;2023-02-22T09:00:46;9.20;;;2.78;;
42770;SDS011;28426;42.872;25.314;2023-02-22T09:03:16;7.82;;;2.60;;
42770;SDS011;28426;42.872;25.314;2023-02-22T09:05:47;8.70;;;2.70;;
42770;SDS011;28426;42.872;25.314;2023-02-22T09:08:18;9.63;;;2.55;;
42770;SDS011;28426;42.872;25.314;2023-02-22T09:10:51;29.45;;;4.70;;
42770;SDS011;28426;42.872;25.314;2023-02-22T09:13:22;7.72;;;2.80;;
42770;SDS011;28426;42.872;25.314;2023-02-22T09:15:53;6.80;;;2.58;;
42770;SDS011;28426;42.872;25.314;2023-02-22T09:18:25;8.43;;;2.78;;
42770;SDS011;28426;42.872;25.314;2023-02-22T09:21:10;6.10;;;2.78;;
42770;SDS011;28426;42.872;25.314;2023-02-22T09:23:41;9.93;;;2.40;;
42770;SDS011;28426;42.872;25.314;2023-02-22T09:26:15;6.20;;;2.92;;
42770;SDS011;28426;42.872;25.314;2023-02-22T09:28:45;13.25;;;3.55;;
42770;SDS011;28426;42.872;25.314;2023-02-22T09:31:16;8.60;;;3.08;;
42770;SDS011;28426;42.872;25.314;2023-02-22T09:33:47;7.40;;;2.22;;
42770;SDS011;28426;42.872;25.314;2023-02-22T09:36:18;7.30;;;2.40;;
42770;SDS011;28426;42.872;25.314;2023-02-22T09:38:51;8.23;;;2.65;;
42770;SDS011;28426;42.872;25.314;2023-02-22T09:41:25;5.25;;;2.33;;
42770;SDS011;28426;42.872;25.314;2023-02-22T09:44:05;9.93;;;2.78;;
42770;SDS011;28426;42.872;25.314;2023-02-22T09:46:45;8.98;;;2.92;;
42770;SDS011;28426;42.872;25.314;2023-02-22T09:49:22;8.65;;;2.40;;
42770;SDS011;28426;42.872;25.314;2023-02-22T09:54:31;6.60;;;2.47;;
42770;SDS011;28426;42.872;25.314;2023-02-22T09:57:10;12.25;;;2.63;;
42770;SDS011;28426;42.872;25.314;2023-02-22T09:59:47;7.93;;;2.90;;
42770;SDS011;28426;42.872;25.314;2023-02-22T10:02:30;9.77;;;2.97;;
42770;SDS011;28426;42.872;25.314;2023-02-22T10:05:07;7.47;;;2.60;;
42770;SDS011;28426;42.872;25.314;2023-02-22T10:07:47;6.60;;;2.15;;
42770;SDS011;28426;42.872;25.314;2023-02-22T10:10:23;5.07;;;2.35;;
42770;SDS011;28426;42.872;25.314;2023-02-22T10:13:03;6.07;;;2.70;;
42770;SDS011;28426;42.872;25.314;2023-02-22T10:15:44;5.43;;;2.53;;
42770;SDS011;28426;42.872;25.314;2023-02-22T10:21:21;14.05;;;2.90;;
42770;SDS011;28426;42.872;25.314;2023-02-22T10:24:06;7.32;;;2.83;;
42770;SDS011;28426;42.872;25.314;2023-02-22T10:26:46;12.93;;;3.58;;
42770;SDS011;28426;42.872;25.314;2023-02-22T10:29:21;8.40;;;2.40;;
42770;SDS011;28426;42.872;25.314;2023-02-22T10:32:00;7.07;;;2.28;;
42770;SDS011;28426;42.872;25.314;2023-02-22T10:34:36;5.53;;;2.43;;
42770;SDS011;28426;42.872;25.314;2023-02-22T10:37:23;7.22;;;2.60;;
42770;SDS011;28426;42.872;25.314;2023-02-22T10:39:57;8.88;;;2.80;;
42770;SDS011;28426;42.872;25.314;2023-02-22T10:42:43;10.90;;;2.80;;
42770;SDS011;28426;42.872;25.314;2023-02-22T10:45:20;6.40;;;2.40;;
42770;SDS011;28426;42.872;25.314;2023-02-22T10:47:54;13.60;;;3.50;;
42770;SDS011;28426;42.872;25.314;2023-02-22T10:50:26;9.48;;;3.10;;
42770;SDS011;28426;42.872;25.314;2023-02-22T10:52:59;7.25;;;2.30;;
42770;SDS011;28426;42.872;25.314;2023-02-22T10:55:30;13.10;;;2.40;;
42770;SDS011;28426;42.872;25.314;2023-02-22T10:58:01;5.75;;;2.58;;
42770;SDS011;28426;42.872;25.314;2023-02-22T11:00:38;5.45;;;2.30;;
42770;SDS011;28426;42.872;25.314;2023-02-22T11:03:15;3.90;;;1.95;;
42770;SDS011;28426;42.872;25.314;2023-02-22T11:05:47;9.25;;;2.35;;
42770;SDS011;28426;42.872;25.314;2023-02-22T11:08:23;12.73;;;2.92;;
42770;SDS011;28426;42.872;25.314;2023-02-22T11:10:58;8.57;;;2.55;;
42770;SDS011;28426;42.872;25.314;2023-02-22T11:13:31;9.73;;;2.70;;
42770;SDS011;28426;42.872;25.314;2023-02-22T11:16:19;4.60;;;1.75;;
42770;SDS011;28426;42.872;25.314;2023-02-22T11:18:58;13.27;;;2.40;;
42770;SDS011;28426;42.872;25.314;2023-02-22T11:21:30;8.23;;;3.00;;
42770;SDS011;28426;42.872;25.314;2023-02-22T11:24:01;4.05;;;2.38;;
42770;SDS011;28426;42.872;25.314;2023-02-22T11:26:39;6.95;;;2.17;;
42770;SDS011;28426;42.872;25.314;2023-02-22T11:29:12;3.90;;;1.83;;
42770;SDS011;28426;42.872;25.314;2023-02-22T11:31:52;7.97;;;2.50;;
42770;SDS011;28426;42.872;25.314;2023-02-22T11:34:35;9.63;;;2.70;;
42770;SDS011;28426;42.872;25.314;2023-02-22T11:37:22;6.55;;;2.35;;
42770;SDS011;28426;42.872;25.314;2023-02-22T11:40:06;4.95;;;2.28;;
42770;SDS011;28426;42.872;25.314;2023-02-22T11:42:43;5.72;;;2.80;;
42770;SDS011;28426;42.872;25.314;2023-02-22T11:45:17;11.13;;;2.33;;
42770;SDS011;28426;42.872;25.314;2023-02-22T11:47:54;5.32;;;2.10;;
42770;SDS011;28426;42.872;25.314;2023-02-22T11:50:28;4.88;;;2.13;;
42770;SDS011;28426;42.872;25.314;2023-02-22T11:53:07;7.18;;;2.50;;
42770;SDS011;28426;42.872;25.314;2023-02-22T11:56:03;6.43;;;2.40;;
42770;SDS011;28426;42.872;25.314;2023-02-22T11:59:02;9.32;;;2.55;;
42770;SDS011;28426;42.872;25.314;2023-02-22T12:01:47;6.47;;;2.15;;
42770;SDS011;28426;42.872;25.314;2023-02-22T12:07:35;4.60;;;2.10;;
42770;SDS011;28426;42.872;25.314;2023-02-22T12:10:19;10.73;;;2.83;;
42770;SDS011;28426;42.872;25.314;2023-02-22T12:13:05;5.45;;;2.08;;
42770;SDS011;28426;42.872;25.314;2023-02-22T12:15:48;4.13;;;2.05;;
42770;SDS011;28426;42.872;25.314;2023-02-22T12:18:25;5.78;;;2.88;;
42770;SDS011;28426;42.872;25.314;2023-02-22T12:21:05;8.50;;;3.53;;
42770;SDS011;28426;42.872;25.314;2023-02-22T12:23:43;13.55;;;2.22;;
42770;SDS011;28426;42.872;25.314;2023-02-22T12:26:21;6.07;;;2.20;;
42770;SDS011;28426;42.872;25.314;2023-02-22T12:28:55;4.68;;;2.20;;
42770;SDS011;28426;42.872;25.314;2023-02-22T12:31:31;8.30;;;2.28;;
42770;SDS011;28426;42.872;25.314;2023-02-22T12:34:10;6.65;;;2.38;;
42770;SDS011;28426;42.872;25.314;2023-02-22T12:36:49;6.70;;;2.20;;
42770;SDS011;28426;42.872;25.314;2023-02-22T12:39:26;8.90;;;2.45;;
42770;SDS011;28426;42.872;25.314;2023-02-22T12:44:57;6.15;;;1.90;;
42770;SDS011;28426;42.872;25.314;2023-02-22T12:47:37;5.18;;;2.25;;
42770;SDS011;28426;42.872;25.314;2023-02-22T12:50:16;4.40;;;2.00;;
42770;SDS011;28426;42.872;25.314;2023-02-22T12:52:54;5.22;;;2.00;;
42770;SDS011;28426;42.872;25.314;2023-02-22T12:55:30;9.80;;;2.20;;
42770;SDS011;28426;42.872;25.314;2023-02-22T12:58:06;8.13;;;2.35;;
42770;SDS011;28426;42.872;25.314;2023-02-22T13:00:43;6.95;;;2.22;;
42770;SDS011;28426;42.872;25.314;2023-02-22T13:03:23;7.43;;;2.58;;
42770;SDS011;28426;42.872;25.314;2023-02-22T13:06:03;5.72;;;2.40;;
42770;SDS011;28426;42.872;25.314;2023-02-22T13:08:47;12.18;;;3.20;;
42770;SDS011;28426;42.872;25.314;2023-02-22T13:11:30;4.73;;;2.00;;
42770;SDS011;28426;42.872;25.314;2023-02-22T13:14:15;5.68;;;1.92;;
42770;SDS011;28426;42.872;25.314;2023-02-22T13:17:00;4.65;;;2.13;;
42770;SDS011;28426;42.872;25.314;2023-02-22T13:19:38;3.83;;;2.05;;
42770;SDS011;28426;42.872;25.314;2023-02-22T13:22:15;6.32;;;2.20;;
42770;SDS011;28426;42.872;25.314;2023-02-22T13:24:56;12.55;;;2.30;;
42770;SDS011;28426;42.872;25.314;2023-02-22T13:27:34;4.50;;;2.03;;
42770;SDS011;28426;42.872;25.314;2023-02-22T13:30:13;4.63;;;1.77;;
42770;SDS011;28426;42.872;25.314;2023-02-22T13:32:58;8.23;;;2.13;;
42770;SDS011;28426;42.872;25.314;2023-02-22T13:35:43;5.97;;;2.08;;
42770;SDS011;28426;42.872;25.314;2023-02-22T13:41:42;4.88;;;2.00;;
42770;SDS011;28426;42.872;25.314;2023-02-22T13:44:31;10.65;;;2.50;;
42770;SDS011;28426;42.872;25.314;2023-02-22T13:53:38;12.27;;;2.65;;
42770;SDS011;28426;42.872;25.314;2023-02-22T13:56:16;10.63;;;2.25;;
42770;SDS011;28426;42.872;25.314;2023-02-22T13:58:52;9.05;;;2.50;;
42770;SDS011;28426;42.872;25.314;2023-02-22T14:01:36;9.55;;;2.55;;
42770;SDS011;28426;42.872;25.314;2023-02-22T14:04:21;5.45;;;2.03;;
42770;SDS011;28426;42.872;25.314;2023-02-22T14:10:35;9.55;;;2.50;;
42770;SDS011;28426;42.872;25.314;2023-02-22T14:13:08;6.47;;;2.13;;
42770;SDS011;28426;42.872;25.314;2023-02-22T14:18:49;5.20;;;2.13;;
42770;SDS011;28426;42.872;25.314;2023-02-22T14:21:32;7.00;;;1.85;;
42770;SDS011;28426;42.872;25.314;2023-02-22T14:24:07;8.82;;;4.32;;
42770;SDS011;28426;42.872;25.314;2023-02-22T14:26:51;5.72;;;2.70;;
42770;SDS011;28426;42.872;25.314;2023-02-22T14:29:27;8.13;;;2.03;;
42770;SDS011;28426;42.872;25.314;2023-02-22T14:32:01;3.83;;;1.75;;
42770;SDS011;28426;42.872;25.314;2023-02-22T14:34:43;5.68;;;2.10;;
42770;SDS011;28426;42.872;25.314;2023-02-22T14:37:18;13.82;;;2.50;;
42770;SDS011;28426;42.872;25.314;2023-02-22T14:39:56;13.35;;;2.30;;
42770;SDS011;28426;42.872;25.314;2023-02-22T14:45:14;6.13;;;2.30;;
42770;SDS011;28426;42.872;25.314;2023-02-22T14:47:52;9.88;;;2.33;;
42770;SDS011;28426;42.872;25.314;2023-02-22T14:50:36;11.70;;;2.50;;
42770;SDS011;28426;42.872;25.314;2023-02-22T14:53:18;6.00;;;2.73;;
42770;SDS011;28426;42.872;25.314;2023-02-22T14:55:55;15.30;;;2.65;;
42770;SDS011;28426;42.872;25.314;2023-02-22T14:58:30;8.07;;;2.13;;
42770;SDS011;28426;42.872;25.314;2023-02-22T15:01:21;8.48;;;2.70;;
42770;SDS011;28426;42.872;25.314;2023-02-22T15:04:15;5.07;;;2.00;;
42770;SDS011;28426;42.872;25.314;2023-02-22T15:06:49;9.65;;;2.65;;
42770;SDS011;28426;42.872;25.314;2023-02-22T15:09:21;11.02;;;2.53;;
42770;SDS011;28426;42.872;25.314;2023-02-22T15:12:09;16.33;;;3.55;;
42770;SDS011;28426;42.872;25.314;2023-02-22T15:14:44;10.27;;;2.85;;
42770;SDS011;28426;42.872;25.314;2023-02-22T15:17:17;11.80;;;3.40;;
42770;SDS011;28426;42.872;25.314;2023-02-22T15:19:50;16.65;;;3.17;;
42770;SDS011;28426;42.872;25.314;2023-02-22T15:22:26;39.75;;;6.70;;
42770;SDS011;28426;42.872;25.314;2023-02-22T15:25:04;10.98;;;4.68;;
42770;SDS011;28426;42.872;25.314;2023-02-22T15:27:37;17.98;;;5.45;;
42770;SDS011;28426;42.872;25.314;2023-02-22T15:30:17;17.90;;;5.15;;
42770;SDS011;28426;42.872;25.314;2023-02-22T15:32:52;11.18;;;3.75;;
42770;SDS011;28426;42.872;25.314;2023-02-22T15:35:31;14.23;;;2.80;;
42770;SDS011;28426;42.872;25.314;2023-02-22T15:38:12;17.70;;;3.10;;
42770;SDS011;28426;42.872;25.314;2023-02-22T15:40:57;10.30;;;2.95;;
42770;SDS011;28426;42.872;25.314;2023-02-22T15:43:29;16.23;;;3.65;;
42770;SDS011;28426;42.872;25.314;2023-02-22T15:46:00;15.25;;;3.35;;
42770;SDS011;28426;42.872;25.314;2023-02-22T15:48:32;19.58;;;4.70;;
42770;SDS011;28426;42.872;25.314;2023-02-22T15:51:07;17.00;;;3.40;;
42770;SDS011;28426;42.872;25.314;2023-02-22T15:53:43;9.30;;;2.60;;